Time;durP1;ratioP1;P1;durP2;ratioP2;P2;SDS_P1;SDS_P2;PMS_P1;PMS_P2;Temp;Humidity;BMP_temperature;BMP_pressure;BME280_temperature;BME280_humidity;BME280_pressure;Samples;Min_cycle;Max_cycle;Signal;HPM_P1;HPM_P2
2023/01/28 00:01:10;;;;;;;12.45;7.15;;;3.60;99.90;;;;;;5069154;28;20041;-87
2023/01/28 00:03:36;;;;;;;12.07;6.80;;;3.60;99.90;;;;;;5055423;28;20404;-87
2023/01/28 00:06:13;;;;;;;11.77;6.53;;;3.60;99.90;;;;;;5076271;28;20032;-88
2023/01/28 00:08:38;;;;;;;16.00;10.50;;;3.60;99.90;;;;;;5093661;28;20055;-88
2023/01/28 00:11:05;;;;;;;12.00;7.32;;;3.60;99.90;;;;;;5088976;28;20658;-87
2023/01/28 00:13:32;;;;;;;12.38;7.82;;;3.60;99.90;;;;;;5076450;28;20040;-87
2023/01/28 00:15:59;;;;;;;12.57;7.95;;;3.60;99.90;;;;;;5069874;28;20047;-87
2023/01/28 00:18:28;;;;;;;11.80;7.05;;;3.60;99.90;;;;;;5093472;28;20086;-87
2023/01/28 00:20:59;;;;;;;13.30;7.60;;;3.60;99.90;;;;;;5076381;28;20081;-87
2023/01/28 00:23:26;;;;;;;12.00;7.13;;;3.60;99.90;;;;;;5070335;28;20493;-87
2023/01/28 00:25:53;;;;;;;12.52;7.35;;;3.60;99.90;;;;;;5093592;28;20119;-88
2023/01/28 00:28:18;;;;;;;13.05;8.32;;;3.60;99.90;;;;;;5082050;28;20037;-88
2023/01/28 00:30:44;;;;;;;14.93;9.77;;;3.60;99.90;;;;;;5055934;28;20085;-88
2023/01/28 00:33:09;;;;;;;12.98;9.10;;;3.60;99.90;;;;;;5074173;28;20044;-87
2023/01/28 00:35:35;;;;;;;11.50;7.60;;;3.60;99.90;;;;;;5073886;28;20151;-87
2023/01/28 00:38:02;;;;;;;11.98;8.18;;;3.60;99.90;;;;;;5056145;28;20375;-88
2023/01/28 00:40:27;;;;;;;11.70;8.02;;;3.60;99.90;;;;;;5072039;28;20515;-88
2023/01/28 00:42:53;;;;;;;11.80;8.18;;;3.60;99.90;;;;;;5056039;28;20037;-88
2023/01/28 00:45:19;;;;;;;12.10;7.90;;;3.60;99.90;;;;;;5058020;28;20032;-88
2023/01/28 00:47:45;;;;;;;12.93;8.25;;;3.60;99.90;;;;;;5055660;28;20043;-88
2023/01/28 00:50:10;;;;;;;12.80;8.65;;;3.60;99.90;;;;;;5056860;28;20054;-88
2023/01/28 00:52:36;;;;;;;12.38;8.35;;;3.50;99.90;;;;;;5072085;28;20035;-87
2023/01/28 00:55:02;;;;;;;11.85;7.88;;;3.50;99.90;;;;;;5072802;28;20523;-88
2023/01/28 00:57:27;;;;;;;11.65;7.80;;;3.60;99.90;;;;;;5056952;28;20040;-88
2023/01/28 00:59:53;;;;;;;11.45;7.68;;;3.50;99.90;;;;;;5072372;28;20386;-88
2023/01/28 01:02:18;;;;;;;11.27;7.75;;;3.50;99.90;;;;;;5071928;28;20051;-88
2023/01/28 01:04:53;;;;;;;14.52;11.10;;;3.50;99.90;;;;;;5055979;28;20036;-88
2023/01/28 01:07:40;;;;;;;12.23;8.18;;;3.50;99.90;;;;;;5071735;28;20112;-88
2023/01/28 01:10:10;;;;;;;11.65;8.30;;;3.50;99.90;;;;;;5072147;28;20029;-88
2023/01/28 01:12:35;;;;;;;11.20;6.80;;;3.50;99.90;;;;;;5077463;28;20033;-88
2023/01/28 01:15:01;;;;;;;11.15;7.70;;;3.50;99.90;;;;;;5057597;28;20039;-88
2023/01/28 01:17:31;;;;;;;11.30;7.55;;;3.50;99.90;;;;;;5055079;28;20082;-88
2023/01/28 01:19:56;;;;;;;11.23;7.30;;;3.40;99.90;;;;;;5057606;28;20064;-88
2023/01/28 01:22:22;;;;;;;12.00;7.72;;;3.40;99.90;;;;;;5088797;28;20033;-88
2023/01/28 01:24:48;;;;;;;11.82;8.07;;;3.40;99.90;;;;;;5106068;28;20113;-88
2023/01/28 01:27:13;;;;;;;10.20;6.20;;;3.40;99.90;;;;;;5070656;28;20509;-88
2023/01/28 01:29:39;;;;;;;9.90;6.82;;;3.50;99.90;;;;;;5075817;28;20097;-88
2023/01/28 01:32:05;;;;;;;10.48;6.70;;;3.50;99.90;;;;;;5069635;28;20032;-88
2023/01/28 01:34:30;;;;;;;11.55;7.65;;;3.40;99.90;;;;;;5075532;28;20451;-88
2023/01/28 01:36:56;;;;;;;10.75;7.30;;;3.40;99.90;;;;;;5069240;28;20444;-88
2023/01/28 01:39:21;;;;;;;11.95;8.25;;;3.40;99.90;;;;;;5054401;28;20098;-88
2023/01/28 01:41:47;;;;;;;12.35;8.10;;;3.40;99.90;;;;;;5055431;28;20037;-88
2023/01/28 01:44:50;;;;;;;10.52;6.85;;;3.40;99.90;;;;;;5105078;28;20571;-88
2023/01/28 01:47:17;;;;;;;10.10;6.45;;;3.40;99.90;;;;;;5071520;28;20106;-88
2023/01/28 01:49:43;;;;;;;10.05;6.40;;;3.40;99.90;;;;;;5073932;28;20043;-88
2023/01/28 01:52:18;;;;;;;10.48;7.35;;;3.40;99.90;;;;;;5092344;28;20040;-89
2023/01/28 01:54:47;;;;;;;8.88;5.82;;;3.40;99.90;;;;;;5071684;28;20044;-89
2023/01/28 01:57:19;;;;;;;9.90;6.10;;;3.30;99.90;;;;;;5071133;28;20583;-89
2023/01/28 01:59:45;;;;;;;11.32;6.72;;;3.40;99.90;;;;;;5075006;28;20649;-89
2023/01/28 02:02:11;;;;;;;10.45;7.03;;;3.40;99.90;;;;;;5069031;28;20039;-89
2023/01/28 02:04:43;;;;;;;10.60;6.18;;;3.30;99.90;;;;;;5075081;28;20040;-89
2023/01/28 02:07:11;;;;;;;10.30;6.05;;;3.30;99.90;;;;;;5074539;28;20047;-89
2023/01/28 02:09:37;;;;;;;9.65;5.72;;;3.30;99.90;;;;;;5073564;28;20202;-89
2023/01/28 02:12:06;;;;;;;10.20;6.32;;;3.30;99.90;;;;;;5074711;28;20032;-89
2023/01/28 02:14:36;;;;;;;9.70;6.40;;;3.30;99.90;;;;;;5090494;28;20408;-89
2023/01/28 02:17:02;;;;;;;9.63;6.78;;;3.30;99.90;;;;;;5074189;28;20032;-89
2023/01/28 02:19:37;;;;;;;9.70;6.25;;;3.30;99.90;;;;;;5091512;28;20071;-89
2023/01/28 02:22:18;;;;;;;11.70;6.50;;;3.30;99.90;;;;;;5072123;28;20044;-89
2023/01/28 02:24:50;;;;;;;10.85;6.65;;;3.30;99.90;;;;;;5074323;28;20130;-89
2023/01/28 02:27:36;;;;;;;8.82;5.57;;;3.30;99.90;;;;;;5068141;28;20040;-89
2023/01/28 02:30:09;;;;;;;9.43;5.47;;;3.30;99.90;;;;;;5074239;28;20038;-89
2023/01/28 02:32:59;;;;;;;8.68;5.53;;;3.30;99.90;;;;;;5084890;28;20067;-89
2023/01/28 02:35:32;;;;;;;8.00;5.03;;;3.30;99.90;;;;;;5091357;28;20439;-89
2023/01/28 02:38:13;;;;;;;8.95;6.15;;;3.20;99.90;;;;;;5069662;28;20086;-88
2023/01/28 02:43:39;;;;;;;9.80;5.82;;;3.20;99.90;;;;;;5082836;28;20068;-89
2023/01/28 02:49:11;;;;;;;12.00;7.72;;;3.20;99.90;;;;;;5089841;28;20119;-89
2023/01/28 02:51:59;;;;;;;9.00;6.27;;;3.20;99.90;;;;;;5073600;28;20127;-88
2023/01/28 02:54:59;;;;;;;8.75;5.35;;;3.20;99.90;;;;;;5073771;28;20048;-89
2023/01/28 02:57:55;;;;;;;9.05;5.70;;;3.20;99.90;;;;;;5086123;28;20083;-89
2023/01/28 03:00:40;;;;;;;8.68;5.03;;;3.20;99.90;;;;;;5073702;28;20047;-89
2023/01/28 03:03:21;;;;;;;9.52;5.35;;;3.20;99.90;;;;;;5072888;28;20051;-89
2023/01/28 03:06:07;;;;;;;9.20;4.75;;;3.20;99.90;;;;;;5072901;28;20032;-89
2023/01/28 03:39:03;;;;;;;10.70;5.43;;;3.10;99.90;;;;;;5076183;28;20036;-89
2023/01/28 03:41:29;;;;;;;9.48;5.32;;;3.10;99.90;;;;;;5053174;28;20043;-89
2023/01/28 03:43:55;;;;;;;9.65;5.18;;;3.10;99.90;;;;;;5052646;28;20028;-89
2023/01/28 03:46:21;;;;;;;10.75;6.13;;;3.10;99.90;;;;;;5056643;28;20036;-88
2023/01/28 03:48:47;;;;;;;11.25;5.22;;;3.10;99.90;;;;;;5073036;28;20071;-89
2023/01/28 03:51:12;;;;;;;9.07;4.82;;;3.10;99.90;;;;;;5065126;28;20075;-89
2023/01/28 03:53:39;;;;;;;10.15;5.57;;;3.10;99.90;;;;;;5090175;28;20479;-89
2023/01/28 03:56:05;;;;;;;10.02;5.47;;;3.10;99.90;;;;;;5071523;28;20076;-89
2023/01/28 03:58:52;;;;;;;11.32;5.40;;;3.10;99.90;;;;;;5052452;28;20048;-89
2023/01/28 04:01:18;;;;;;;10.77;5.47;;;3.10;99.90;;;;;;5060167;28;20047;-89
2023/01/28 04:03:44;;;;;;;9.63;5.97;;;3.00;99.90;;;;;;5073035;28;20036;-88
2023/01/28 04:06:10;;;;;;;9.75;5.13;;;3.00;99.90;;;;;;5072246;28;20044;-88
2023/01/28 04:08:35;;;;;;;10.25;5.50;;;3.10;99.90;;;;;;5068675;28;20488;-88
2023/01/28 04:11:18;;;;;;;10.10;5.70;;;3.10;99.90;;;;;;5073291;28;20051;-88
2023/01/28 04:13:45;;;;;;;10.02;5.78;;;3.10;99.90;;;;;;5067373;28;20505;-89
2023/01/28 04:16:15;;;;;;;10.02;5.43;;;3.00;99.90;;;;;;5089733;28;20075;-89
2023/01/28 04:18:41;;;;;;;9.70;4.95;;;3.00;99.90;;;;;;5068553;28;20090;-88
2023/01/28 04:21:06;;;;;;;9.18;5.07;;;3.00;99.90;;;;;;5072668;28;20051;-88
2023/01/28 04:23:32;;;;;;;9.43;5.22;;;3.00;99.90;;;;;;5072708;28;20036;-88
2023/01/28 04:25:58;;;;;;;9.88;5.63;;;3.00;99.90;;;;;;5086642;28;20032;-89
2023/01/28 04:28:23;;;;;;;11.32;6.72;;;3.00;99.90;;;;;;5072902;28;20039;-89
2023/01/28 04:30:50;;;;;;;9.65;5.65;;;3.10;99.90;;;;;;5072732;28;20554;-89
2023/01/28 04:33:16;;;;;;;9.43;4.47;;;3.00;99.90;;;;;;5066783;28;20394;-89
2023/01/28 04:35:42;;;;;;;9.00;4.93;;;3.10;99.90;;;;;;5072795;28;20043;-88
2023/01/28 04:38:07;;;;;;;9.73;5.72;;;3.00;99.90;;;;;;5066273;28;20545;-88
2023/01/28 04:40:33;;;;;;;9.77;5.05;;;3.00;99.90;;;;;;5072452;28;20040;-89
2023/01/28 04:42:59;;;;;;;9.80;5.60;;;3.00;99.90;;;;;;5089610;28;20032;-88
2023/01/28 04:45:24;;;;;;;10.15;5.47;;;2.90;99.90;;;;;;5085197;28;20409;-88
2023/01/28 04:47:50;;;;;;;9.73;5.72;;;2.90;99.90;;;;;;5089171;28;20036;-88
2023/01/28 04:50:16;;;;;;;10.15;5.68;;;2.90;99.90;;;;;;5092122;28;20036;-87
2023/01/28 04:52:42;;;;;;;12.32;7.13;;;2.90;99.90;;;;;;5074583;28;20081;-88
2023/01/28 04:55:09;;;;;;;12.60;7.57;;;3.00;99.90;;;;;;5076116;28;20044;-88
2023/01/28 04:57:35;;;;;;;10.18;5.95;;;2.90;99.90;;;;;;5072342;28;20126;-88
2023/01/28 05:00:00;;;;;;;10.63;5.75;;;3.00;99.90;;;;;;5092848;28;20131;-88
2023/01/28 05:02:26;;;;;;;10.07;5.38;;;3.00;99.90;;;;;;5068349;28;20044;-88
2023/01/28 05:04:52;;;;;;;9.82;5.50;;;3.00;99.90;;;;;;5076022;28;20039;-88
2023/01/28 05:07:17;;;;;;;10.32;5.47;;;3.00;99.90;;;;;;5075434;28;20040;-88
2023/01/28 05:09:43;;;;;;;9.93;5.65;;;3.00;99.90;;;;;;5070772;28;20043;-88
2023/01/28 05:12:08;;;;;;;11.98;6.28;;;3.00;99.90;;;;;;5076164;28;20067;-88
2023/01/28 05:14:34;;;;;;;9.57;5.05;;;3.00;99.90;;;;;;5091716;28;20089;-88
2023/01/28 05:17:00;;;;;;;12.32;6.15;;;3.00;99.90;;;;;;5092615;28;20126;-88
2023/01/28 05:19:25;;;;;;;10.70;5.95;;;3.00;99.90;;;;;;5074636;28;20496;-88
2023/01/28 05:21:51;;;;;;;10.18;5.53;;;3.00;99.90;;;;;;5074734;28;20055;-88
2023/01/28 05:24:17;;;;;;;10.20;5.30;;;3.00;99.90;;;;;;5075739;28;20058;-88
2023/01/28 05:26:42;;;;;;;11.65;5.72;;;3.00;99.90;;;;;;5086909;28;20508;-88
2023/01/28 05:29:08;;;;;;;10.40;5.95;;;3.00;99.90;;;;;;5075510;28;20119;-89
2023/01/28 05:31:33;;;;;;;11.75;6.22;;;3.00;99.90;;;;;;5074206;28;20456;-88
2023/01/28 05:34:00;;;;;;;11.65;6.35;;;3.00;99.90;;;;;;5075679;28;20101;-89
2023/01/28 05:36:26;;;;;;;10.52;5.63;;;3.00;99.90;;;;;;5074949;28;20113;-89
2023/01/28 05:38:51;;;;;;;11.20;5.88;;;3.00;99.90;;;;;;5072753;28;20450;-89
2023/01/28 05:41:17;;;;;;;11.30;6.13;;;3.00;99.90;;;;;;5091821;28;20492;-88
2023/01/28 05:43:43;;;;;;;10.35;5.57;;;3.00;99.90;;;;;;5069590;28;20032;-89
2023/01/28 05:46:08;;;;;;;10.65;5.55;;;3.00;99.90;;;;;;5075172;28;20055;-89
2023/01/28 05:48:34;;;;;;;11.13;5.95;;;3.00;99.90;;;;;;5074286;28;20050;-88
2023/01/28 05:51:00;;;;;;;11.23;5.93;;;3.00;99.90;;;;;;5086192;28;20444;-89
2023/01/28 05:53:26;;;;;;;12.57;6.22;;;3.00;99.90;;;;;;5075061;28;20071;-88
2023/01/28 05:55:52;;;;;;;10.43;6.05;;;3.00;99.90;;;;;;5090356;28;20068;-89
2023/01/28 05:58:19;;;;;;;11.35;6.25;;;3.00;99.90;;;;;;5074954;28;20036;-89
2023/01/28 06:00:45;;;;;;;13.02;6.00;;;3.00;99.90;;;;;;5066041;28;20094;-88
2023/01/28 06:03:10;;;;;;;12.13;6.18;;;3.00;99.90;;;;;;5091723;28;20493;-89
2023/01/28 06:05:36;;;;;;;12.55;6.57;;;3.00;99.90;;;;;;5074488;28;20051;-88
2023/01/28 06:08:02;;;;;;;9.52;5.05;;;2.90;99.90;;;;;;5066603;28;20036;-88
2023/01/28 06:10:28;;;;;;;11.63;5.63;;;2.90;99.90;;;;;;5074944;28;20054;-89
2023/01/28 06:12:54;;;;;;;10.90;5.22;;;2.90;99.90;;;;;;5071965;28;20055;-89
2023/01/28 06:15:20;;;;;;;11.35;5.22;;;2.90;99.90;;;;;;5073547;28;20435;-89
2023/01/28 06:17:45;;;;;;;10.95;5.97;;;2.90;99.90;;;;;;5074379;28;20044;-88
2023/01/28 06:20:11;;;;;;;13.15;8.20;;;2.90;99.90;;;;;;5068444;28;20044;-88
2023/01/28 06:22:37;;;;;;;12.57;7.45;;;2.90;99.90;;;;;;5057674;28;20055;-88
2023/01/28 06:25:03;;;;;;;13.57;8.55;;;2.90;99.90;;;;;;5071010;28;20043;-89
2023/01/28 06:27:28;;;;;;;12.35;7.32;;;2.90;99.90;;;;;;5066583;28;20036;-88
2023/01/28 06:29:54;;;;;;;12.43;7.65;;;2.90;99.90;;;;;;5074720;28;20052;-88
2023/01/28 06:32:20;;;;;;;11.52;6.68;;;2.90;99.90;;;;;;5072200;28;20518;-88
2023/01/28 06:34:46;;;;;;;11.77;7.20;;;2.90;99.90;;;;;;5074255;28;20040;-88
2023/01/28 06:37:13;;;;;;;13.32;6.82;;;2.90;99.90;;;;;;5073526;28;20043;-88
2023/01/28 06:39:38;;;;;;;11.77;6.53;;;2.90;99.90;;;;;;5070086;28;20044;-89
2023/01/28 06:42:04;;;;;;;12.82;6.60;;;2.90;99.90;;;;;;5073625;28;20044;-89
2023/01/28 06:44:30;;;;;;;13.48;6.53;;;2.90;99.90;;;;;;5071306;28;20409;-89
2023/01/28 06:46:55;;;;;;;11.88;6.28;;;2.90;99.90;;;;;;5074346;28;20043;-89
2023/01/28 06:49:21;;;;;;;10.65;5.75;;;2.90;99.90;;;;;;5087121;28;20528;-88
2023/01/28 06:51:47;;;;;;;11.40;6.45;;;2.90;99.90;;;;;;5074076;28;20078;-89
2023/01/28 06:54:13;;;;;;;10.68;5.82;;;2.90;99.90;;;;;;5073927;28;20071;-89
2023/01/28 06:56:39;;;;;;;12.82;6.78;;;2.90;99.90;;;;;;5066045;28;20043;-89
2023/01/28 06:59:04;;;;;;;13.45;6.70;;;2.90;99.90;;;;;;5073805;28;20443;-89
2023/01/28 07:01:30;;;;;;;12.05;6.95;;;2.90;99.90;;;;;;5067561;28;20493;-88
2023/01/28 07:03:56;;;;;;;12.13;6.28;;;2.90;99.90;;;;;;5073228;28;20050;-88
2023/01/28 07:06:22;;;;;;;11.77;6.32;;;2.90;99.90;;;;;;5086185;28;20047;-87
2023/01/28 07:08:48;;;;;;;12.43;6.57;;;2.90;99.90;;;;;;5069890;28;20054;-88
2023/01/28 07:11:14;;;;;;;12.15;6.45;;;2.90;99.90;;;;;;5090668;28;20044;-88
2023/01/28 07:13:40;;;;;;;11.65;6.57;;;2.90;99.90;;;;;;5068632;28;20081;-88
2023/01/28 07:16:06;;;;;;;11.45;6.40;;;2.90;99.90;;;;;;5073954;28;20048;-89
2023/01/28 07:18:32;;;;;;;14.27;6.63;;;2.90;99.90;;;;;;5071644;28;20070;-89
2023/01/28 07:20:58;;;;;;;12.75;6.35;;;2.90;99.90;;;;;;5056834;28;20493;-89
2023/01/28 07:23:24;;;;;;;12.45;6.93;;;2.90;99.90;;;;;;5051783;28;20086;-88
2023/01/28 07:25:50;;;;;;;12.77;6.88;;;2.90;99.90;;;;;;5060711;28;20032;-88
2023/01/28 07:28:20;;;;;;;13.10;6.63;;;2.90;99.90;;;;;;5072502;28;20485;-88
2023/01/28 07:30:48;;;;;;;13.27;6.07;;;2.80;99.90;;;;;;5070589;28;20039;-88
2023/01/28 07:33:13;;;;;;;11.98;5.88;;;2.80;99.90;;;;;;5089892;28;20484;-88
2023/01/28 07:35:39;;;;;;;14.00;7.70;;;2.80;99.90;;;;;;5087188;28;20050;-88
2023/01/28 07:38:05;;;;;;;12.82;6.93;;;2.80;99.90;;;;;;5072589;28;20437;-88
2023/01/28 07:40:30;;;;;;;14.63;7.47;;;2.70;99.90;;;;;;5072078;28;20035;-88
2023/01/28 07:42:56;;;;;;;14.20;7.03;;;2.70;99.90;;;;;;5070442;28;20047;-88
2023/01/28 07:45:23;;;;;;;13.25;6.65;;;2.70;99.90;;;;;;5089064;28;20036;-88
2023/01/28 07:47:56;;;;;;;12.90;6.88;;;2.70;99.90;;;;;;5066012;28;20036;-88
2023/01/28 07:50:23;;;;;;;11.77;6.63;;;2.60;99.90;;;;;;5072693;28;20119;-88
2023/01/28 07:52:48;;;;;;;12.80;6.93;;;2.60;99.90;;;;;;5089020;28;20505;-87
2023/01/28 07:55:15;;;;;;;13.20;6.88;;;2.60;99.90;;;;;;5086064;28;20050;-88
2023/01/28 07:57:56;;;;;;;12.95;6.25;;;2.60;99.90;;;;;;5072553;28;20044;-88
2023/01/28 08:00:23;;;;;;;13.88;7.10;;;2.60;99.90;;;;;;5069552;28;20114;-88
2023/01/28 08:02:54;;;;;;;12.57;6.55;;;2.50;99.90;;;;;;5052078;28;20041;-89
2023/01/28 08:05:20;;;;;;;12.95;6.80;;;2.50;99.90;;;;;;5070498;28;20481;-89
2023/01/28 08:07:47;;;;;;;12.30;7.00;;;2.50;99.90;;;;;;5066522;28;20036;-88
2023/01/28 08:10:14;;;;;;;11.48;6.13;;;2.50;99.90;;;;;;5072498;28;20075;-89
2023/01/28 08:12:40;;;;;;;12.15;6.65;;;2.50;99.90;;;;;;5065769;28;20066;-88
2023/01/28 08:15:06;;;;;;;12.00;6.50;;;2.50;99.90;;;;;;5072785;28;20028;-89
2023/01/28 08:17:32;;;;;;;13.43;6.20;;;2.50;99.90;;;;;;5088811;28;20032;-88
2023/01/28 08:19:58;;;;;;;11.65;6.22;;;2.50;99.90;;;;;;5070220;28;20385;-89
2023/01/28 08:22:27;;;;;;;13.32;6.57;;;2.40;99.90;;;;;;5069825;28;20043;-89
2023/01/28 08:24:52;;;;;;;11.85;6.38;;;2.40;99.90;;;;;;5071814;28;20044;-89
2023/01/28 08:27:18;;;;;;;11.55;6.43;;;2.50;99.90;;;;;;5074292;28;20032;-88
2023/01/28 08:29:44;;;;;;;11.90;5.55;;;2.40;99.90;;;;;;5075782;28;20093;-88
2023/01/28 08:32:10;;;;;;;12.68;6.50;;;2.40;99.90;;;;;;5092640;28;20040;-88
2023/01/28 08:34:36;;;;;;;12.27;5.90;;;2.30;99.90;;;;;;5076141;28;20043;-88
2023/01/28 08:37:01;;;;;;;10.85;5.95;;;2.30;99.90;;;;;;5075137;28;20046;-89
2023/01/28 08:39:27;;;;;;;11.88;6.57;;;2.20;99.90;;;;;;5075671;28;20043;-89
2023/01/28 08:41:52;;;;;;;12.45;6.07;;;2.20;99.90;;;;;;5074745;28;20076;-88
2023/01/28 08:44:18;;;;;;;13.05;7.03;;;2.10;99.90;;;;;;5075577;28;20032;-89
2023/01/28 08:46:44;;;;;;;12.07;6.18;;;2.10;99.90;;;;;;5093151;28;20404;-89
2023/01/28 08:49:09;;;;;;;13.10;6.80;;;2.10;99.90;;;;;;5073587;28;20039;-89
2023/01/28 08:51:35;;;;;;;13.18;7.18;;;2.10;99.90;;;;;;5076545;28;20074;-89
2023/01/28 08:54:01;;;;;;;12.73;6.97;;;2.20;99.90;;;;;;5093293;28;20043;-89
2023/01/28 08:56:26;;;;;;;12.55;7.43;;;2.20;99.90;;;;;;5076030;28;20566;-89
2023/01/28 08:58:52;;;;;;;13.13;6.97;;;2.20;99.90;;;;;;5075969;28;20036;-89
2023/01/28 09:01:18;;;;;;;14.45;7.70;;;2.30;99.90;;;;;;5075662;28;20096;-89
2023/01/28 09:03:43;;;;;;;13.00;7.40;;;2.30;99.90;;;;;;5075555;28;20051;-88
2023/01/28 09:06:09;;;;;;;14.95;8.15;;;2.30;99.90;;;;;;5076129;28;20098;-89
2023/01/28 09:08:34;;;;;;;13.48;8.00;;;2.40;99.90;;;;;;5074901;28;20074;-89
2023/01/28 09:11:00;;;;;;;13.07;6.85;;;2.40;99.90;;;;;;5075988;28;20414;-89
2023/01/28 09:13:27;;;;;;;14.43;7.18;;;2.50;99.90;;;;;;5075521;28;20059;-89
2023/01/28 09:15:53;;;;;;;15.65;7.82;;;2.50;99.90;;;;;;5076180;28;20032;-89
2023/01/28 09:18:19;;;;;;;15.45;7.88;;;2.60;99.90;;;;;;5075191;28;20085;-89
2023/01/28 09:20:44;;;;;;;13.20;7.47;;;2.60;99.90;;;;;;5075172;28;20417;-88
2023/01/28 09:23:12;;;;;;;15.27;8.20;;;2.60;99.90;;;;;;5092024;28;20047;-89
2023/01/28 09:25:38;;;;;;;14.10;7.30;;;2.70;99.90;;;;;;5074540;28;20028;-88
2023/01/28 09:28:04;;;;;;;14.93;6.68;;;2.70;99.90;;;;;;5057865;28;20033;-89
2023/01/28 09:30:30;;;;;;;12.82;7.20;;;2.80;99.90;;;;;;5064481;28;20028;-89
2023/01/28 09:32:59;;;;;;;12.32;6.78;;;2.80;99.90;;;;;;5035668;28;20417;-89
2023/01/28 09:35:25;;;;;;;13.88;7.43;;;2.90;99.90;;;;;;5069362;28;20053;-90
2023/01/28 09:37:51;;;;;;;13.15;7.55;;;2.90;99.90;;;;;;5069421;28;20039;-89
2023/01/28 09:40:36;;;;;;;12.48;6.82;;;3.00;99.90;;;;;;5092312;28;20122;-88
2023/01/28 09:43:30;;;;;;;13.13;7.30;;;3.10;99.90;;;;;;5091564;28;20040;-89
2023/01/28 09:45:59;;;;;;;13.18;6.65;;;3.20;99.90;;;;;;5091442;28;20046;-89
2023/01/28 09:48:45;;;;;;;12.05;6.18;;;3.20;99.90;;;;;;5072587;28;20086;-89
2023/01/28 09:51:28;;;;;;;13.57;6.40;;;3.30;99.90;;;;;;5073669;28;20066;-89
2023/01/28 09:53:57;;;;;;;10.90;5.68;;;3.30;99.90;;;;;;5074573;28;20142;-89
2023/01/28 09:56:30;;;;;;;11.05;5.82;;;3.40;99.90;;;;;;5074848;28;20032;-89
2023/01/28 09:59:04;;;;;;;13.35;6.80;;;3.40;99.90;;;;;;5074700;28;20042;-88
2023/01/28 10:01:53;;;;;;;12.73;6.50;;;3.40;99.90;;;;;;5074365;28;20118;-89
2023/01/28 10:04:41;;;;;;;12.52;7.25;;;3.50;99.90;;;;;;5042408;28;20040;-89
2023/01/28 10:07:20;;;;;;;13.65;7.30;;;3.50;99.90;;;;;;5073963;28;20035;-89
2023/01/28 10:09:49;;;;;;;13.88;7.32;;;3.50;99.90;;;;;;5075224;28;20397;-89
2023/01/28 10:12:37;;;;;;;11.88;6.40;;;3.50;99.90;;;;;;5075270;28;20126;-89
2023/01/28 10:15:09;;;;;;;12.80;6.18;;;3.50;99.90;;;;;;5057462;28;20040;-89
2023/01/28 10:17:48;;;;;;;13.07;6.45;;;3.60;99.90;;;;;;5074768;28;20047;-89
2023/01/28 10:20:35;;;;;;;14.98;7.18;;;3.60;99.90;;;;;;5073883;28;20079;-89
2023/01/28 10:23:14;;;;;;;11.57;5.57;;;3.60;99.90;;;;;;5073545;28;20039;-88
2023/01/28 10:25:43;;;;;;;13.68;7.55;;;3.70;99.90;;;;;;5072997;28;20443;-89
2023/01/28 10:28:21;;;;;;;12.32;6.50;;;3.70;99.90;;;;;;5073942;28;20119;-89
2023/01/28 10:30:48;;;;;;;12.52;6.25;;;3.80;99.90;;;;;;5073943;28;20481;-89
2023/01/28 10:33:35;;;;;;;12.85;6.82;;;3.90;99.90;;;;;;5074469;28;20366;-90
2023/01/28 10:36:02;;;;;;;12.48;6.40;;;4.00;99.90;;;;;;5074655;28;20043;-89
2023/01/28 10:38:30;;;;;;;16.90;7.28;;;4.00;99.90;;;;;;5074298;28;20493;-89
2023/01/28 10:41:04;;;;;;;13.20;6.97;;;4.10;99.90;;;;;;5065290;28;20045;-89
2023/01/28 10:43:36;;;;;;;13.75;7.10;;;4.20;99.90;;;;;;5070373;28;20083;-90
2023/01/28 10:46:04;;;;;;;16.20;7.00;;;4.30;99.90;;;;;;5073862;28;20050;-90
2023/01/28 10:48:47;;;;;;;13.95;7.57;;;4.40;99.90;;;;;;5073328;28;20282;-89
2023/01/28 10:51:14;;;;;;;13.43;6.70;;;4.40;99.90;;;;;;5091267;28;20032;-89
2023/01/28 10:53:44;;;;;;;12.48;6.70;;;4.40;99.90;;;;;;5091068;28;20527;-89
2023/01/28 10:56:22;;;;;;;14.98;7.55;;;4.40;99.90;;;;;;5073607;28;20492;-89
2023/01/28 10:58:57;;;;;;;12.00;6.57;;;4.50;99.90;;;;;;5073912;28;20065;-89
2023/01/28 11:01:23;;;;;;;12.80;5.95;;;4.50;99.90;;;;;;5073437;28;20123;-89
2023/01/28 11:03:57;;;;;;;12.35;7.05;;;4.50;99.90;;;;;;5055579;28;20141;-89
2023/01/28 11:06:28;;;;;;;11.70;6.30;;;4.60;99.90;;;;;;5061733;28;20046;-89
2023/01/28 11:08:54;;;;;;;12.63;6.30;;;4.70;99.90;;;;;;5090113;28;20036;-89
2023/01/28 11:11:25;;;;;;;14.95;6.70;;;4.80;99.90;;;;;;5092224;28;20046;-89
2023/01/28 11:13:57;;;;;;;13.73;7.00;;;4.80;99.90;;;;;;5073185;28;20130;-90
2023/01/28 11:16:24;;;;;;;12.13;6.20;;;4.90;99.70;;;;;;5074689;28;20082;-90
2023/01/28 11:18:53;;;;;;;13.77;6.43;;;4.90;98.80;;;;;;5073459;28;20115;-90
2023/01/28 11:21:22;;;;;;;12.30;6.68;;;5.00;98.90;;;;;;5090920;28;20051;-90
2023/01/28 11:24:00;;;;;;;12.57;6.90;;;5.10;99.30;;;;;;5089757;28;20060;-90
2023/01/28 11:26:31;;;;;;;12.57;6.38;;;5.20;98.30;;;;;;5073396;28;20043;-91
2023/01/28 11:28:57;;;;;;;12.55;6.05;;;5.40;99.10;;;;;;5073633;28;20036;-90
2023/01/28 11:31:23;;;;;;;13.27;6.68;;;5.60;98.90;;;;;;5073279;28;20067;-90
2023/01/28 11:33:58;;;;;;;13.20;5.93;;;5.70;96.90;;;;;;5073848;28;20126;-91
2023/01/28 11:36:26;;;;;;;9.52;4.80;;;5.70;95.70;;;;;;5073933;28;20040;-90
2023/01/28 11:39:24;;;;;;;10.82;5.40;;;5.80;95.70;;;;;;5073408;28;20054;-91
2023/01/28 11:41:50;;;;;;;10.95;5.68;;;5.90;94.80;;;;;;4992248;28;20420;-92
2023/01/28 11:44:20;;;;;;;12.65;5.88;;;6.10;94.70;;;;;;4976446;28;20064;-91
2023/01/28 11:47:01;;;;;;;14.30;6.70;;;6.00;93.40;;;;;;4977047;28;20103;-91
2023/01/28 11:49:32;;;;;;;10.48;5.63;;;6.00;93.80;;;;;;4987744;28;20172;-92
2023/01/28 11:52:08;;;;;;;12.30;6.43;;;6.00;94.40;;;;;;5006475;28;20100;-91
2023/01/28 11:54:52;;;;;;;13.40;6.57;;;6.00;94.30;;;;;;5005981;28;20100;-91
2023/01/28 11:57:35;;;;;;;10.52;5.38;;;6.00;94.30;;;;;;4989818;28;20121;-91
2023/01/28 12:00:53;;;;;;;10.27;5.53;;;5.90;93.70;;;;;;4989597;28;20415;-90
2023/01/28 12:03:18;;;;;;;11.48;5.65;;;6.00;93.20;;;;;;4929179;29;20047;-91
2023/01/28 12:06:13;;;;;;;11.30;5.60;;;6.20;93.60;;;;;;4972501;28;20104;-91
2023/01/28 12:08:41;;;;;;;10.23;4.57;;;6.40;93.10;;;;;;4980565;28;20041;-91
2023/01/28 12:15:13;;;;;;;11.18;5.40;;;6.80;91.40;;;;;;4997035;28;20428;-92
2023/01/28 12:18:02;;;;;;;11.68;5.80;;;7.00;90.10;;;;;;4936978;28;20054;-92
2023/01/28 12:20:38;;;;;;;10.35;5.00;;;7.40;90.00;;;;;;4980354;28;20076;-92
2023/01/28 12:23:20;;;;;;;11.10;5.07;;;7.50;88.60;;;;;;4979631;28;20085;-92
2023/01/28 12:26:11;;;;;;;11.20;5.30;;;7.50;87.40;;;;;;4979090;28;20033;-92
2023/01/28 12:29:06;;;;;;;10.20;5.00;;;7.40;86.20;;;;;;4980212;28;20471;-92
2023/01/28 12:31:34;;;;;;;11.13;5.53;;;7.30;87.40;;;;;;4968480;28;20052;-91
2023/01/28 12:34:30;;;;;;;12.50;5.43;;;7.30;87.30;;;;;;4957897;28;20042;-92
2023/01/28 12:37:13;;;;;;;11.25;5.53;;;7.10;86.50;;;;;;4959038;28;20045;-91
2023/01/28 12:40:16;;;;;;;11.82;5.72;;;6.90;87.00;;;;;;4988595;28;20104;-91
2023/01/28 12:42:56;;;;;;;10.57;5.05;;;6.80;87.70;;;;;;4952985;28;20058;-91
2023/01/28 12:45:34;;;;;;;9.68;5.22;;;6.60;89.60;;;;;;4953198;28;20042;-91
2023/01/28 12:48:08;;;;;;;12.15;5.25;;;6.60;90.20;;;;;;5015676;28;20056;-91
2023/01/28 12:50:53;;;;;;;11.30;4.90;;;6.40;88.90;;;;;;5057065;28;20043;-91
2023/01/28 12:53:30;;;;;;;10.32;5.35;;;6.30;89.60;;;;;;5075119;28;20500;-90
2023/01/28 12:56:22;;;;;;;10.27;4.97;;;6.30;90.50;;;;;;5073377;28;20044;-90
2023/01/28 12:59:11;;;;;;;10.60;5.28;;;6.20;90.30;;;;;;5074274;28;20562;-91
2023/01/28 13:01:46;;;;;;;10.48;4.78;;;6.20;89.80;;;;;;5071335;28;20056;-90
2023/01/28 13:04:18;;;;;;;11.30;4.88;;;6.10;90.30;;;;;;5053668;28;20379;-91
2023/01/28 13:07:02;;;;;;;11.32;4.55;;;6.10;90.20;;;;;;5070029;28;20040;-91
2023/01/28 13:09:32;;;;;;;9.95;3.85;;;6.10;90.70;;;;;;5087719;28;20115;-90
2023/01/28 13:12:00;;;;;;;10.15;5.20;;;6.10;90.60;;;;;;5074263;28;20084;-91
2023/01/28 13:14:31;;;;;;;12.18;4.72;;;6.20;90.80;;;;;;5090972;28;20112;-91
2023/01/28 13:17:27;;;;;;;10.07;5.18;;;6.60;91.30;;;;;;5090990;28;20047;-91
2023/01/28 13:19:53;;;;;;;10.43;5.75;;;8.30;92.80;;;;;;5081500;28;20051;-91
2023/01/28 13:22:32;;;;;;;11.00;6.00;;;10.20;86.70;;;;;;5090844;28;20051;-91
2023/01/28 13:25:17;;;;;;;10.85;5.78;;;11.90;80.90;;;;;;5091947;28;20115;-91
2023/01/28 13:27:56;;;;;;;12.57;7.28;;;12.90;74.70;;;;;;5090030;28;20048;-91
2023/01/28 13:30:29;;;;;;;10.30;8.40;;;13.80;71.90;;;;;;5092688;28;20036;-91
2023/01/28 13:33:16;;;;;;;10.30;6.85;;;14.50;67.20;;;;;;5082702;28;20093;-92
2023/01/28 13:35:52;;;;;;;9.98;8.25;;;14.90;65.90;;;;;;5051437;28;20040;-92
2023/01/28 13:38:20;;;;;;;10.10;7.68;;;15.70;61.30;;;;;;5053041;28;20045;-92
2023/01/28 13:40:59;;;;;;;10.05;8.27;;;15.90;60.90;;;;;;5034682;28;1143614;-92
2023/01/28 13:43:51;;;;;;;9.73;7.68;;;16.20;58.30;;;;;;5073811;28;20127;-92
2023/01/28 13:46:29;;;;;;;9.85;7.32;;;16.30;57.10;;;;;;5052630;28;20123;-93